createdAt,value
2022-10-05T00:00:12.525Z,92.80
2022-10-05T00:01:12.517Z,91.88
2022-10-05T00:02:12.620Z,91.88
2022-10-05T00:03:12.495Z,91.78
2022-10-05T00:04:12.493Z,91.78
2022-10-05T00:05:12.519Z,91.78
2022-10-05T00:06:12.444Z,92.29
2022-10-05T00:07:12.448Z,92.50
2022-10-05T00:08:12.414Z,92.29
2022-10-05T00:09:12.418Z,91.88
2022-10-05T00:10:12.396Z,91.78
2022-10-05T00:11:12.385Z,91.88
2022-10-05T00:12:12.385Z,91.99
2022-10-05T00:13:12.364Z,92.29
2022-10-05T00:14:12.342Z,92.40
2022-10-05T00:15:12.335Z,92.40
2022-10-05T00:16:12.360Z,92.40
2022-10-05T00:17:12.325Z,92.29
2022-10-05T00:18:12.283Z,92.19
2022-10-05T00:19:12.278Z,92.50
2022-10-05T00:20:12.263Z,92.54
2022-10-05T00:21:12.254Z,92.44
2022-10-05T00:22:12.254Z,92.33
2022-10-05T00:23:12.241Z,92.23
2022-10-05T00:24:12.216Z,92.44
2022-10-05T00:25:12.210Z,92.44
2022-10-05T00:26:12.184Z,92.85
2022-10-05T00:27:12.194Z,93.16
2022-10-05T00:28:12.200Z,93.16
2022-10-05T00:29:12.153Z,93.36
2022-10-05T00:30:12.139Z,93.46
2022-10-05T00:31:12.148Z,93.36
2022-10-05T00:32:12.180Z,93.46
2022-10-05T00:33:12.102Z,93.26
2022-10-05T00:34:12.090Z,93.46
2022-10-05T00:35:12.064Z,93.46
2022-10-05T00:36:12.056Z,93.46
2022-10-05T00:37:12.054Z,92.85
2022-10-05T00:38:12.025Z,92.44
2022-10-05T00:39:12.020Z,92.44
2022-10-05T00:40:12.003Z,92.58
2022-10-05T00:41:11.991Z,92.58
2022-10-05T00:42:11.982Z,92.58
2022-10-05T00:43:11.971Z,92.79
2022-10-05T00:44:11.950Z,92.99
2022-10-05T00:45:11.943Z,92.79
2022-10-05T00:46:11.954Z,92.99
2022-10-05T00:47:11.935Z,92.99
2022-10-05T00:48:11.899Z,92.58
2022-10-05T00:49:11.895Z,92.27
2022-10-05T00:50:11.869Z,91.76
2022-10-05T00:51:11.865Z,92.17
2022-10-05T00:52:11.857Z,92.48
2022-10-05T00:53:11.834Z,92.38
2022-10-05T00:54:15.988Z,92.01
2022-10-05T00:55:12.837Z,91.91
2022-10-05T00:56:11.788Z,92.11
2022-10-05T00:57:11.792Z,92.42
2022-10-05T00:58:11.761Z,92.42
2022-10-05T00:59:11.753Z,92.42
2022-10-05T01:00:11.738Z,92.01
2022-10-05T01:01:11.775Z,91.80
2022-10-05T01:02:11.889Z,92.11
2022-10-05T01:03:11.698Z,92.42
2022-10-05T01:04:11.690Z,92.67
2022-10-05T01:05:11.685Z,93.18
2022-10-05T01:06:11.657Z,93.59
2022-10-05T01:07:11.669Z,93.70
2022-10-05T01:08:11.635Z,93.80
2022-10-05T01:09:11.626Z,93.59
2022-10-05T01:10:11.613Z,93.29
2022-10-05T01:11:11.605Z,93.29
2022-10-05T01:12:11.597Z,93.59
2022-10-05T01:13:11.582Z,93.39
2022-10-05T01:14:11.555Z,92.97
2022-10-05T01:15:11.549Z,92.57
2022-10-05T01:16:11.568Z,92.87
2022-10-05T01:17:11.586Z,93.29
2022-10-05T01:18:11.496Z,93.49
2022-10-05T01:19:11.502Z,93.43
2022-10-05T01:20:11.475Z,93.02
2022-10-05T01:21:11.475Z,92.61
2022-10-05T01:22:21.468Z,92.30
2022-10-05T01:23:11.437Z,92.10
2022-10-05T01:24:11.425Z,91.99
2022-10-05T01:25:11.427Z,91.89
2022-10-05T01:26:11.398Z,91.68
2022-10-05T01:27:11.404Z,91.38
2022-10-05T01:28:11.436Z,91.47
2022-10-05T01:29:11.376Z,91.78
2022-10-05T01:30:11.348Z,91.38
2022-10-05T01:31:11.386Z,91.06
2022-10-05T01:32:11.335Z,90.66
2022-10-05T01:33:11.324Z,90.80
2022-10-05T01:34:11.695Z,90.90
2022-10-05T01:35:11.282Z,91.11
2022-10-05T01:36:11.258Z,90.90
2022-10-05T01:37:11.277Z,90.90
2022-10-05T01:38:11.240Z,91.11
2022-10-05T01:39:11.238Z,91.00
2022-10-05T01:40:11.228Z,91.00
2022-10-05T01:41:11.208Z,91.00
2022-10-05T01:42:11.213Z,91.00
2022-10-05T01:43:11.182Z,90.90
2022-10-05T01:44:11.164Z,91.00
2022-10-05T01:45:11.178Z,90.73
2022-10-05T01:46:11.196Z,90.64
2022-10-05T01:47:11.133Z,90.94
2022-10-05T01:48:11.134Z,90.94
2022-10-05T01:49:11.093Z,90.64
2022-10-05T01:50:11.082Z,90.22
2022-10-05T01:51:11.098Z,90.33
2022-10-05T01:52:11.061Z,91.15
2022-10-05T01:53:11.047Z,92.18
2022-10-05T01:54:11.041Z,92.69
2022-10-05T01:55:11.025Z,93.01
2022-10-05T01:56:11.017Z,93.11
2022-10-05T01:57:10.992Z,93.05
2022-10-05T01:58:10.984Z,93.05
2022-10-05T01:59:10.978Z,93.35
2022-10-05T02:00:10.956Z,93.87
2022-10-05T02:01:10.997Z,94.18
2022-10-05T02:02:11.002Z,94.38
2022-10-05T02:03:10.925Z,94.38
2022-10-05T02:04:10.901Z,94.28
2022-10-05T02:05:10.893Z,94.18
2022-10-05T02:06:10.886Z,93.87
2022-10-05T02:07:10.869Z,93.35
2022-10-05T02:08:10.851Z,93.15
2022-10-05T02:09:10.845Z,93.15
2022-10-05T02:10:10.821Z,93.05
2022-10-05T02:11:10.841Z,93.05
2022-10-05T02:12:10.803Z,92.94
2022-10-05T02:13:10.791Z,92.74
2022-10-05T02:14:10.773Z,92.84
2022-10-05T02:15:10.773Z,93.05
2022-10-05T02:16:10.830Z,93.25
2022-10-05T02:17:10.751Z,93.35
2022-10-05T02:18:10.719Z,93.46
2022-10-05T02:19:10.711Z,93.46
2022-10-05T02:20:10.699Z,93.25
2022-10-05T02:21:10.702Z,93.25
2022-10-05T02:22:10.673Z,92.94
2022-10-05T02:23:10.659Z,92.74
2022-10-05T02:24:10.641Z,92.47
2022-10-05T02:25:10.628Z,92.47
2022-10-05T02:26:10.628Z,92.47
2022-10-05T02:27:10.642Z,92.37
2022-10-05T02:28:10.671Z,92.16
2022-10-05T02:29:10.582Z,91.85
2022-10-05T02:30:16.243Z,91.64
2022-10-05T02:31:11.627Z,91.54
2022-10-05T02:32:10.553Z,91.44
2022-10-05T02:33:10.530Z,91.85
2022-10-05T02:34:10.509Z,92.06
2022-10-05T02:35:10.514Z,91.85
2022-10-05T02:36:10.488Z,91.44
2022-10-05T02:37:10.480Z,91.24
2022-10-05T02:38:10.466Z,90.82
2022-10-05T02:39:10.454Z,90.72
2022-10-05T02:40:10.437Z,90.82
2022-10-05T02:41:10.440Z,90.82
2022-10-05T02:42:10.409Z,91.03
2022-10-05T02:43:10.410Z,91.13
2022-10-05T02:44:10.387Z,91.38
2022-10-05T02:45:10.368Z,91.28
2022-10-05T02:46:10.455Z,90.97
2022-10-05T02:47:10.359Z,90.55
2022-10-05T02:48:10.354Z,90.04
2022-10-05T02:49:10.317Z,90.55
2022-10-05T02:50:10.295Z,91.79
2022-10-05T02:51:10.325Z,92.41
2022-10-05T02:52:10.274Z,93.54
2022-10-05T02:53:10.264Z,94.37
2022-10-05T02:54:10.263Z,94.78
2022-10-05T02:55:10.254Z,94.89
2022-10-05T02:56:10.236Z,94.78
2022-10-05T02:57:10.214Z,94.57
2022-10-05T02:58:10.198Z,94.17
2022-10-05T02:59:10.196Z,93.65
2022-10-05T03:00:10.177Z,93.13
2022-10-05T03:01:10.239Z,92.61
2022-10-05T03:02:10.171Z,92.31
2022-10-05T03:03:10.145Z,91.83
2022-10-05T03:04:10.127Z,91.52
2022-10-05T03:05:10.103Z,91.01
2022-10-05T03:06:10.110Z,90.80
2022-10-05T03:07:10.083Z,90.70
2022-10-05T03:08:10.070Z,90.59
2022-10-05T03:09:10.056Z,90.59
2022-10-05T03:10:10.045Z,90.49
2022-10-05T03:11:10.044Z,90.39
2022-10-05T03:12:10.013Z,90.19
2022-10-05T03:13:10.012Z,89.98
2022-10-05T03:14:09.993Z,89.87
2022-10-05T03:15:09.991Z,89.56
2022-10-05T03:16:10.020Z,89.46
2022-10-05T03:17:09.970Z,89.40
2022-10-05T03:18:09.947Z,89.29
2022-10-05T03:19:09.956Z,88.98
2022-10-05T03:20:09.932Z,88.98
2022-10-05T03:21:09.902Z,88.89
2022-10-05T03:22:09.890Z,88.78
2022-10-05T03:23:09.882Z,88.57
2022-10-05T03:24:09.870Z,88.47
2022-10-05T03:25:09.861Z,88.57
2022-10-05T03:26:09.838Z,88.37
2022-10-05T03:27:09.828Z,88.37
2022-10-05T03:28:09.869Z,88.47
2022-10-05T03:29:09.802Z,88.16
2022-10-05T03:30:09.799Z,88.37
2022-10-05T03:31:09.813Z,88.57
2022-10-05T03:32:09.758Z,88.98
2022-10-05T03:33:09.747Z,89.09
2022-10-05T03:34:09.729Z,89.29
2022-10-05T03:35:09.768Z,89.29
2022-10-05T03:36:09.711Z,89.29
2022-10-05T03:37:09.688Z,89.81
2022-10-05T03:38:09.684Z,90.12
2022-10-05T03:39:09.657Z,90.33
2022-10-05T03:40:09.675Z,90.33
2022-10-05T03:41:09.639Z,89.92
2022-10-05T03:42:09.627Z,89.50
2022-10-05T03:43:09.606Z,88.98
2022-10-05T03:44:09.620Z,88.89
2022-10-05T03:45:09.622Z,89.19
2022-10-05T03:46:09.656Z,90.02
2022-10-05T03:47:09.579Z,90.43
2022-10-05T03:48:09.559Z,90.95
2022-10-05T03:49:09.558Z,91.16
2022-10-05T03:50:09.547Z,91.05
2022-10-05T03:51:09.506Z,90.84
2022-10-05T03:52:09.501Z,90.99
2022-10-05T03:53:09.474Z,91.30
2022-10-05T03:54:09.476Z,91.50
2022-10-05T03:55:09.464Z,91.82
2022-10-05T03:56:09.444Z,92.13
2022-10-05T03:57:09.437Z,92.23
2022-10-05T03:58:09.440Z,92.13
2022-10-05T03:59:09.423Z,91.82
2022-10-05T04:00:09.395Z,91.50
2022-10-05T04:01:09.441Z,91.09
2022-10-05T04:02:09.421Z,90.68
2022-10-05T04:03:09.355Z,90.16
2022-10-05T04:04:09.372Z,89.86
2022-10-05T04:05:09.325Z,89.86
2022-10-05T04:06:09.326Z,89.65
2022-10-05T04:07:09.294Z,89.34
2022-10-05T04:08:09.293Z,89.13
2022-10-05T04:09:09.306Z,89.03
2022-10-05T04:10:09.269Z,89.34
2022-10-05T04:11:09.264Z,89.54
2022-10-05T04:12:09.249Z,90.06
2022-10-05T04:13:09.218Z,90.26
2022-10-05T04:14:09.224Z,90.58
2022-10-05T04:15:09.205Z,91.30
2022-10-05T04:16:09.236Z,91.82
2022-10-05T04:17:09.172Z,91.96
2022-10-05T04:18:09.153Z,91.86
2022-10-05T04:19:09.154Z,91.65
2022-10-05T04:20:09.133Z,91.24
2022-10-05T04:21:09.114Z,90.72
2022-10-05T04:22:09.103Z,90.31
2022-10-05T04:23:09.095Z,90.31
2022-10-05T04:24:09.097Z,90.20
2022-10-05T04:25:09.095Z,90.20
2022-10-05T04:26:09.068Z,90.00
2022-10-05T04:27:09.043Z,89.69
2022-10-05T04:28:09.116Z,89.38
2022-10-05T04:29:09.020Z,89.17
2022-10-05T04:30:09.010Z,89.17
2022-10-05T04:31:09.034Z,88.86
2022-10-05T04:32:08.982Z,88.76
2022-10-05T04:33:08.961Z,88.90
2022-10-05T04:34:08.980Z,88.90
2022-10-05T04:35:08.930Z,88.59
2022-10-05T04:36:08.929Z,88.59
2022-10-05T04:37:08.911Z,88.28
2022-10-05T04:38:08.900Z,88.49
2022-10-05T04:39:08.893Z,89.01
2022-10-05T04:40:08.869Z,89.22
2022-10-05T04:41:08.860Z,89.42
2022-10-05T04:42:08.850Z,89.94
2022-10-05T04:43:08.819Z,89.83
2022-10-05T04:44:08.830Z,89.62
2022-10-05T04:45:08.805Z,89.73
2022-10-05T04:46:08.792Z,89.73
2022-10-05T04:47:08.808Z,90.14
2022-10-05T04:48:08.773Z,90.56
2022-10-05T04:49:08.762Z,90.87
2022-10-05T04:50:08.737Z,91.13
2022-10-05T04:51:08.717Z,91.28
2022-10-05T04:52:08.706Z,91.13
2022-10-05T04:53:08.689Z,91.44
2022-10-05T04:54:08.698Z,91.55
2022-10-05T04:55:08.676Z,91.86
2022-10-05T04:56:08.661Z,91.96
2022-10-05T04:57:08.640Z,91.75
2022-10-05T04:58:08.635Z,91.96
2022-10-05T04:59:08.627Z,92.27
2022-10-05T05:00:08.605Z,92.79
2022-10-05T05:01:08.666Z,93.20
2022-10-05T05:02:08.590Z,93.62
2022-10-05T05:03:08.567Z,94.03
2022-10-05T05:04:08.619Z,95.12
2022-10-05T05:05:08.539Z,95.53
2022-10-05T05:06:22.866Z,95.84
2022-10-05T05:07:09.514Z,95.95
2022-10-05T05:08:08.502Z,96.15
2022-10-05T05:09:08.497Z,96.88
2022-10-05T05:10:08.475Z,97.45
2022-10-05T05:11:11.326Z,97.66
2022-10-05T05:12:09.457Z,97.97
2022-10-05T05:13:08.432Z,98.28
2022-10-05T05:14:08.434Z,98.44
2022-10-05T05:15:08.410Z,98.75
2022-10-05T05:16:08.465Z,99.26
2022-10-05T05:17:12.299Z,99.73
2022-10-05T05:18:08.374Z,99.99
2022-10-05T05:19:08.365Z,99.99
2022-10-05T05:20:08.353Z,99.99
2022-10-05T05:21:08.336Z,99.99
2022-10-05T05:22:08.326Z,99.99
2022-10-05T05:23:08.302Z,99.99
2022-10-05T05:24:08.302Z,99.99
2022-10-05T05:25:08.286Z,99.99
2022-10-05T05:26:08.263Z,99.99
2022-10-05T05:27:08.253Z,99.99
2022-10-05T05:28:08.304Z,99.99
2022-10-05T05:29:08.233Z,99.99
2022-10-05T05:30:08.222Z,99.99
2022-10-05T05:31:08.272Z,99.99
2022-10-05T05:32:08.191Z,99.99
2022-10-05T05:33:08.170Z,99.99
2022-10-05T05:34:08.172Z,99.99
2022-10-05T05:35:08.150Z,99.99
2022-10-05T05:36:08.131Z,99.99
2022-10-05T05:37:08.122Z,99.99
2022-10-05T05:38:08.120Z,99.99
2022-10-05T05:39:08.100Z,99.99
2022-10-05T05:40:08.079Z,99.99
2022-10-05T05:41:08.059Z,99.99
2022-10-05T05:42:08.064Z,99.99
2022-10-05T05:43:08.064Z,99.99
2022-10-05T05:44:08.044Z,99.99
2022-10-05T05:45:08.019Z,99.99
2022-10-05T05:46:08.183Z,99.99
2022-10-05T05:47:08.440Z,99.99
2022-10-05T05:48:07.988Z,99.99
2022-10-05T05:49:07.970Z,99.99
2022-10-05T05:50:08.027Z,99.99
2022-10-05T05:51:07.939Z,99.99
2022-10-05T05:52:07.937Z,99.99
2022-10-05T05:53:07.938Z,99.99
2022-10-05T05:54:07.906Z,99.99
2022-10-05T05:55:07.888Z,99.99
2022-10-05T05:56:07.881Z,99.99
2022-10-05T05:57:07.857Z,99.99
2022-10-05T05:58:07.868Z,99.99
2022-10-05T05:59:07.839Z,99.99
2022-10-05T06:00:07.830Z,99.99
2022-10-05T06:01:20.304Z,99.99
2022-10-05T06:02:08.875Z,99.99
2022-10-05T06:03:07.889Z,99.99
2022-10-05T06:04:07.778Z,99.99
2022-10-05T06:05:07.814Z,99.99
2022-10-05T06:06:07.770Z,99.84
2022-10-05T06:07:07.736Z,99.13
2022-10-05T06:08:07.749Z,98.16
2022-10-05T06:09:07.706Z,97.09
2022-10-05T06:10:07.699Z,96.33
2022-10-05T06:11:07.676Z,96.13
2022-10-05T06:12:07.665Z,95.92
2022-10-05T06:13:07.667Z,95.62
2022-10-05T06:14:07.638Z,95.21
2022-10-05T06:15:07.631Z,94.80
2022-10-05T06:16:07.729Z,94.49
2022-10-05T06:17:07.620Z,94.14
2022-10-05T06:18:07.606Z,93.84
2022-10-05T06:19:07.575Z,93.52
2022-10-05T06:20:07.576Z,93.32
2022-10-05T06:21:07.545Z,93.22
2022-10-05T06:22:07.549Z,93.01
2022-10-05T06:23:07.525Z,92.77
2022-10-05T06:24:07.508Z,92.25
2022-10-05T06:25:07.498Z,91.39
2022-10-05T06:26:10.697Z,90.74
2022-10-05T06:27:07.488Z,90.12
2022-10-05T06:28:07.523Z,89.17
2022-10-05T06:29:07.437Z,88.85
2022-10-05T06:30:07.437Z,88.55
2022-10-05T06:31:07.448Z,88.45
2022-10-05T06:32:07.440Z,88.45
2022-10-05T06:33:07.392Z,88.24
2022-10-05T06:34:07.379Z,88.14
2022-10-05T06:35:07.371Z,87.84
2022-10-05T06:36:07.356Z,88.24
2022-10-05T06:37:07.348Z,88.24
2022-10-05T06:38:07.327Z,88.04
2022-10-05T06:39:07.306Z,88.24
2022-10-05T06:40:07.305Z,88.51
2022-10-05T06:41:07.284Z,88.51
2022-10-05T06:42:07.296Z,88.47
2022-10-05T06:43:07.259Z,88.57
2022-10-05T06:44:07.244Z,87.92
2022-10-05T06:45:07.248Z,87.77
2022-10-05T06:46:07.326Z,85.66
2022-10-05T06:47:07.230Z,84.59
2022-10-05T06:48:07.197Z,84.70
2022-10-05T06:49:07.184Z,84.05
2022-10-05T06:50:07.173Z,83.03
2022-10-05T06:51:07.151Z,82.12
2022-10-05T06:52:07.154Z,82.38
2022-10-05T06:53:07.158Z,82.99
2022-10-05T06:54:07.130Z,82.65
2022-10-05T06:55:09.571Z,81.12
2022-10-05T06:56:08.096Z,80.72
2022-10-05T06:57:07.501Z,81.19
2022-10-05T06:58:07.066Z,80.31
2022-10-05T06:59:07.045Z,79.66
2022-10-05T07:00:07.037Z,79.86
2022-10-05T07:01:07.053Z,79.77
2022-10-05T07:02:07.059Z,79.16
2022-10-05T07:03:07.012Z,78.64
2022-10-05T07:04:06.992Z,78.28
2022-10-05T07:05:06.967Z,78.64
2022-10-05T07:06:06.954Z,79.09
2022-10-05T07:07:06.945Z,78.85
2022-10-05T07:08:06.924Z,78.38
2022-10-05T07:09:06.924Z,78.95
2022-10-05T07:10:06.919Z,79.16
2022-10-05T07:11:06.889Z,79.36
2022-10-05T07:12:07.457Z,79.16
2022-10-05T07:13:06.874Z,78.44
2022-10-05T07:14:06.848Z,78.64
2022-10-05T07:15:06.843Z,78.71
2022-10-05T07:16:06.872Z,77.86
2022-10-05T07:17:06.833Z,77.59
2022-10-05T07:18:06.819Z,76.26
2022-10-05T07:19:06.784Z,72.85
2022-10-05T07:20:06.773Z,71.77
2022-10-05T07:21:06.763Z,70.02
2022-10-05T07:23:06.726Z,68.74
2022-10-05T07:24:06.727Z,67.67
2022-10-05T07:25:06.712Z,66.93
2022-10-05T07:26:06.696Z,66.30
2022-10-05T07:27:06.783Z,66.50
2022-10-05T07:28:06.784Z,65.69
2022-10-05T07:29:06.742Z,65.16
2022-10-05T07:30:06.636Z,65.66
2022-10-05T07:31:06.678Z,62.71
2022-10-05T07:32:06.614Z,63.31
2022-10-05T07:33:06.606Z,64.69
2022-10-05T07:34:06.596Z,64.36
2022-10-05T07:35:06.566Z,62.02
2022-10-05T07:36:06.558Z,63.19
2022-10-05T07:37:06.557Z,61.66
2022-10-05T07:38:06.534Z,61.93
2022-10-05T07:39:06.546Z,61.17
2022-10-05T07:40:06.508Z,58.46
2022-10-05T07:41:06.498Z,58.73
2022-10-05T07:42:06.487Z,57.93
2022-10-05T07:43:06.476Z,59.83
2022-10-05T07:44:11.660Z,60.03
2022-10-05T07:45:07.466Z,58.63
2022-10-05T07:46:06.492Z,58.43
2022-10-05T07:47:06.424Z,59.91
2022-10-05T07:48:06.431Z,59.00
2022-10-05T07:49:06.397Z,59.41
2022-10-05T07:50:06.377Z,58.11
2022-10-05T07:51:06.374Z,57.70
2022-10-05T07:52:06.345Z,57.48
2022-10-05T07:53:06.359Z,56.45
2022-10-05T07:54:06.331Z,56.62
2022-10-05T07:55:06.325Z,55.62
2022-10-05T07:56:06.301Z,55.29
2022-10-05T07:57:06.288Z,55.47
2022-10-05T07:58:06.286Z,54.02
2022-10-05T07:59:06.268Z,52.59
2022-10-05T08:00:06.252Z,53.77
2022-10-05T08:01:06.243Z,53.47
2022-10-05T08:02:06.415Z,53.47
2022-10-05T08:03:06.301Z,50.55
2022-10-05T08:04:06.198Z,50.62
2022-10-05T08:05:06.188Z,51.62
2022-10-05T08:06:06.169Z,51.40
2022-10-05T08:07:06.159Z,51.47
2022-10-05T08:08:06.222Z,50.68
2022-10-05T08:09:06.128Z,50.27
2022-10-05T08:10:06.116Z,49.08
2022-10-05T08:11:06.136Z,50.57
2022-10-05T08:12:06.107Z,50.57
2022-10-05T08:13:06.122Z,49.01
2022-10-05T08:14:06.088Z,49.51
2022-10-05T08:15:06.057Z,51.22
2022-10-05T08:16:06.104Z,50.32
2022-10-05T08:17:06.032Z,49.83
2022-10-05T08:18:06.048Z,50.95
2022-10-05T08:19:06.022Z,50.87
2022-10-05T08:20:05.978Z,50.07
2022-10-05T08:21:05.976Z,52.07
2022-10-05T08:22:05.973Z,51.79
2022-10-05T08:23:15.150Z,52.59
2022-10-05T08:24:05.931Z,52.72
2022-10-05T08:25:05.927Z,52.92
2022-10-05T08:26:05.920Z,52.34
2022-10-05T08:27:05.898Z,53.47
2022-10-05T08:28:05.931Z,54.69
2022-10-05T08:29:09.139Z,54.52
2022-10-05T08:30:06.862Z,54.32
2022-10-05T08:31:05.884Z,55.15
2022-10-05T08:32:05.839Z,55.35
2022-10-05T08:33:05.837Z,55.87
2022-10-05T08:34:05.801Z,56.77
2022-10-05T08:35:05.792Z,56.77
2022-10-05T08:36:05.791Z,55.77
2022-10-05T08:37:05.784Z,56.10
2022-10-05T08:38:05.791Z,56.30
2022-10-05T08:39:05.732Z,56.60
2022-10-05T08:40:05.725Z,56.83
2022-10-05T08:41:05.714Z,58.03
2022-10-05T08:42:05.776Z,57.13
2022-10-05T08:43:05.700Z,58.03
2022-10-05T08:44:05.670Z,58.53
2022-10-05T08:45:05.662Z,58.13
2022-10-05T08:46:05.699Z,57.73
2022-10-05T08:47:05.643Z,57.20
2022-10-05T08:48:05.631Z,56.80
2022-10-05T08:49:05.614Z,57.40
2022-10-05T08:50:05.583Z,57.30
2022-10-05T08:51:05.574Z,56.70
2022-10-05T08:52:05.573Z,56.50
2022-10-05T08:53:05.560Z,55.47
2022-10-05T08:54:05.544Z,56.67
2022-10-05T08:55:05.534Z,57.65
2022-10-05T08:56:05.507Z,57.35
2022-10-05T08:57:05.604Z,57.42
2022-10-05T08:58:05.488Z,56.72
2022-10-05T08:59:05.477Z,56.22
2022-10-05T09:00:05.472Z,56.92
2022-10-05T09:01:05.502Z,54.85
2022-10-05T09:02:05.511Z,56.22
2022-10-05T09:03:05.423Z,56.82
2022-10-05T09:04:05.403Z,54.60
2022-10-05T09:05:05.394Z,56.16
2022-10-05T09:06:05.374Z,55.04
2022-10-05T09:07:05.390Z,54.59
2022-10-05T09:08:05.355Z,55.29
2022-10-05T09:09:05.351Z,54.76
2022-10-05T09:10:05.357Z,54.64
2022-10-05T09:11:05.323Z,52.34
2022-10-05T09:12:05.315Z,52.55
2022-10-05T09:13:05.293Z,52.55
2022-10-05T09:14:05.291Z,53.54
2022-10-05T09:15:24.856Z,51.25
2022-10-05T09:16:06.334Z,52.67
2022-10-05T09:17:05.266Z,53.56
2022-10-05T09:18:05.226Z,53.59
2022-10-05T09:19:05.221Z,54.02
2022-10-05T09:20:05.197Z,53.84
2022-10-05T09:21:05.197Z,54.57
2022-10-05T09:22:05.185Z,54.47
2022-10-05T09:23:05.183Z,55.19
2022-10-05T09:24:05.156Z,55.32
2022-10-05T09:25:05.158Z,55.72
2022-10-05T09:26:05.116Z,56.15
2022-10-05T09:27:05.122Z,56.85
2022-10-05T09:28:05.157Z,57.05
2022-10-05T09:29:05.089Z,57.65
2022-10-05T09:30:05.086Z,57.35
2022-10-05T09:31:05.156Z,56.85
2022-10-05T09:32:05.057Z,56.55
2022-10-05T09:33:05.048Z,57.22
2022-10-05T09:34:05.029Z,57.22
2022-10-05T09:35:05.098Z,56.70
2022-10-05T09:36:04.990Z,56.27
2022-10-05T09:37:04.987Z,56.04
2022-10-05T09:38:04.973Z,56.14
2022-10-05T09:39:04.970Z,55.11
2022-10-05T09:40:05.086Z,54.89
2022-10-05T09:41:04.926Z,54.66
2022-10-05T09:42:04.923Z,54.96
2022-10-05T09:43:04.906Z,54.57
2022-10-05T09:44:04.890Z,54.66
2022-10-05T09:45:04.890Z,55.06
2022-10-05T09:46:04.900Z,55.06
2022-10-05T09:47:04.847Z,55.26
2022-10-05T09:48:04.839Z,54.36
2022-10-05T09:49:04.820Z,53.47
2022-10-05T09:50:04.826Z,54.59
2022-10-05T09:51:04.799Z,55.29
2022-10-05T09:52:04.788Z,55.58
2022-10-05T09:53:04.775Z,55.36
2022-10-05T09:54:04.748Z,54.57
2022-10-05T09:55:04.747Z,55.06
2022-10-05T09:56:04.728Z,54.79
2022-10-05T09:57:04.734Z,54.99
2022-10-05T09:58:04.697Z,55.09
2022-10-05T09:59:04.689Z,55.49
2022-10-05T10:00:04.756Z,55.69
2022-10-05T10:01:09.722Z,55.32
2022-10-05T10:02:05.723Z,55.02
2022-10-05T10:03:04.948Z,55.11
2022-10-05T10:04:04.627Z,55.81
2022-10-05T10:05:04.610Z,55.51
2022-10-05T10:06:04.624Z,57.39
2022-10-05T10:07:04.613Z,56.48
2022-10-05T10:08:04.574Z,56.48
2022-10-05T10:09:04.559Z,55.79
2022-10-05T10:10:04.562Z,55.56
2022-10-05T10:11:04.553Z,56.16
2022-10-05T10:12:04.531Z,54.96
2022-10-05T10:13:04.514Z,55.56
2022-10-05T10:14:04.490Z,55.96
2022-10-05T10:15:04.496Z,54.76
2022-10-05T10:16:04.561Z,54.36
2022-10-05T10:17:04.459Z,54.94
2022-10-05T10:18:04.442Z,53.84
2022-10-05T10:19:04.429Z,53.94
2022-10-05T10:20:04.411Z,54.41
2022-10-05T10:21:04.417Z,54.31
2022-10-05T10:22:04.398Z,55.41
2022-10-05T10:23:04.383Z,55.98
2022-10-05T10:24:04.359Z,55.48
2022-10-05T10:25:04.362Z,56.18
2022-10-05T10:26:04.345Z,55.05
2022-10-05T10:27:04.354Z,54.88
2022-10-05T10:28:04.352Z,55.38
2022-10-05T10:29:04.303Z,54.79
2022-10-05T10:30:04.280Z,55.55
2022-10-05T10:31:04.364Z,54.86
2022-10-05T10:32:04.264Z,52.79
2022-10-05T10:33:59.513Z,54.79
2022-10-05T10:34:59.503Z,53.99
2022-10-05T10:36:01.643Z,54.31
2022-10-05T10:37:00.485Z,54.51
2022-10-05T10:37:59.466Z,54.21
2022-10-05T10:38:59.454Z,55.04
2022-10-05T10:39:59.443Z,55.33
2022-10-05T10:40:59.440Z,55.13
2022-10-05T10:41:59.404Z,54.24
2022-10-05T10:42:59.406Z,56.13
2022-10-05T10:43:59.386Z,55.24
2022-10-05T10:44:59.374Z,55.93
2022-10-05T10:45:59.429Z,55.24
2022-10-05T10:46:59.399Z,54.53
2022-10-05T10:47:59.337Z,55.13
2022-10-05T10:48:59.323Z,54.64
2022-10-05T10:49:59.316Z,55.33
2022-10-05T10:50:59.306Z,53.74
2022-10-05T10:51:59.293Z,55.43
2022-10-05T10:52:59.284Z,56.03
2022-10-05T10:53:59.256Z,55.80
2022-10-05T10:54:59.251Z,55.31
2022-10-05T10:55:59.244Z,56.30
2022-10-05T10:56:59.235Z,55.01
2022-10-05T10:57:59.206Z,55.68
2022-10-05T10:58:59.197Z,53.49
2022-10-05T10:59:59.175Z,55.48
2022-10-05T11:00:59.186Z,54.98
2022-10-05T11:01:59.240Z,54.88
2022-10-05T11:02:59.199Z,54.49
2022-10-05T11:03:59.265Z,54.56
2022-10-05T11:04:59.116Z,54.46
2022-10-05T11:05:59.106Z,54.96
2022-10-05T11:06:59.093Z,55.55
2022-10-05T11:07:59.069Z,55.23
2022-10-05T11:08:59.077Z,55.93
2022-10-05T11:09:59.044Z,54.03
2022-10-05T11:10:59.046Z,54.50
2022-10-05T11:11:59.019Z,54.21
2022-10-05T11:12:59.008Z,55.00
2022-10-05T11:13:58.994Z,53.81
2022-10-05T11:14:59.011Z,54.21
2022-10-05T11:15:59.083Z,53.91
2022-10-05T11:16:58.957Z,52.72
2022-10-05T11:17:58.951Z,52.91
2022-10-05T11:18:58.931Z,53.11
2022-10-05T11:20:04.015Z,52.42
2022-10-05T11:20:59.921Z,52.62
2022-10-05T11:21:58.899Z,51.22
2022-10-05T11:22:58.885Z,51.42
2022-10-05T11:23:58.879Z,52.22
2022-10-05T11:24:58.863Z,50.93
2022-10-05T11:25:58.851Z,52.72
2022-10-05T11:26:58.827Z,51.42
2022-10-05T11:27:58.850Z,50.93
2022-10-05T11:28:58.834Z,51.72
2022-10-05T11:29:58.792Z,52.51
2022-10-05T11:30:58.816Z,51.42
2022-10-05T11:31:58.781Z,51.92
2022-10-05T11:32:58.751Z,52.22
2022-10-05T11:33:58.732Z,52.42
2022-10-05T11:34:58.741Z,53.02
2022-10-05T11:35:58.722Z,53.31
2022-10-05T11:36:58.700Z,52.94
2022-10-05T11:37:58.691Z,52.44
2022-10-05T11:38:58.671Z,51.95
2022-10-05T11:39:58.674Z,51.95
2022-10-05T11:40:58.668Z,52.64
2022-10-05T11:41:58.638Z,52.37
2022-10-05T11:42:58.642Z,53.06
2022-10-05T11:44:00.303Z,53.06
2022-10-05T11:44:58.618Z,54.16
2022-10-05T11:45:58.605Z,54.79
2022-10-05T11:46:58.569Z,53.59
2022-10-05T11:47:58.564Z,53.39
2022-10-05T11:48:58.541Z,53.99
2022-10-05T11:49:58.553Z,54.28
2022-10-05T11:50:58.520Z,54.98
2022-10-05T11:51:58.502Z,54.58
2022-10-05T11:52:58.508Z,54.58
2022-10-05T11:53:58.491Z,54.88
2022-10-05T11:55:10.505Z,55.78
2022-10-05T11:56:55.162Z,54.46
2022-10-05T11:57:55.133Z,54.86
2022-10-05T11:58:55.114Z,55.35
2022-10-05T11:59:55.105Z,55.76
2022-10-05T12:00:55.084Z,54.83
2022-10-05T12:01:55.064Z,55.33
2022-10-05T12:02:55.150Z,54.13
2022-10-05T12:03:55.135Z,55.03
2022-10-05T12:04:55.068Z,53.94
2022-10-05T12:05:55.025Z,52.04
2022-10-05T12:06:55.007Z,50.15
2022-10-05T12:07:54.994Z,52.04
2022-10-05T12:08:54.987Z,50.85
2022-10-05T12:09:54.976Z,52.47
2022-10-05T12:10:54.957Z,51.97
2022-10-05T12:11:57.870Z,50.27
2022-10-05T12:12:54.979Z,51.47
2022-10-05T12:13:54.929Z,50.78
2022-10-05T12:14:54.915Z,50.50
2022-10-05T12:15:54.944Z,51.70
2022-10-05T12:16:54.888Z,52.99
2022-10-05T12:17:54.866Z,51.89
2022-10-05T12:18:54.848Z,52.09
2022-10-05T12:19:54.837Z,53.49
2022-10-05T12:20:54.829Z,50.80
2022-10-05T12:21:54.830Z,50.60
2022-10-05T12:22:54.795Z,50.30
2022-10-05T12:23:54.790Z,52.79
2022-10-05T12:24:54.784Z,51.79
2022-10-05T12:25:54.759Z,53.69
2022-10-05T12:26:54.748Z,52.00
2022-10-05T12:27:54.812Z,52.79
2022-10-05T12:28:54.717Z,52.17
2022-10-05T12:29:54.717Z,50.27
2022-10-05T12:30:54.689Z,50.98
2022-10-05T12:31:54.702Z,52.86
2022-10-05T12:32:58.131Z,52.97
2022-10-05T12:33:55.667Z,52.17
2022-10-05T12:35:01.115Z,50.48
2022-10-05T12:35:55.628Z,51.97
2022-10-05T12:37:09.794Z,52.37
2022-10-05T12:37:55.598Z,52.86
2022-10-05T12:38:54.597Z,52.07
2022-10-05T12:39:54.580Z,51.97
2022-10-05T12:40:54.573Z,51.77
2022-10-05T12:41:54.561Z,52.27
2022-10-05T12:42:54.539Z,52.37
2022-10-05T12:43:54.520Z,52.00
2022-10-05T12:44:54.511Z,52.09
2022-10-05T12:45:54.526Z,52.79
2022-10-05T12:46:54.499Z,52.22
2022-10-05T12:47:54.470Z,51.82
2022-10-05T12:48:54.473Z,53.02
2022-10-05T12:49:54.439Z,53.34
2022-10-05T12:50:54.455Z,53.04
2022-10-05T12:51:54.443Z,53.34
2022-10-05T12:52:54.411Z,54.14
2022-10-05T12:53:54.388Z,52.34
2022-10-05T12:54:54.392Z,54.06